Time;durP1;ratioP1;P1;durP2;ratioP2;P2;SDS_P1;SDS_P2;PMS_P1;PMS_P2;Temp;Humidity;BMP_temperature;BMP_pressure;BME280_temperature;BME280_humidity;BME280_pressure;Samples;Min_cycle;Max_cycle;Signal;HPM_P1;HPM_P2
2022/06/11 00:00:16;;;;;;;8.25;3.03;;;23.00;88.60;;;;;;5072217;28;20039;-63
2022/06/11 00:02:42;;;;;;;7.25;2.92;;;23.00;88.50;;;;;;5075189;28;20049;-63
2022/06/11 00:05:08;;;;;;;5.93;3.17;;;22.90;88.50;;;;;;5075082;28;20068;-63
2022/06/11 00:07:34;;;;;;;7.88;3.00;;;22.90;88.60;;;;;;5060287;28;20029;-63
2022/06/11 00:10:00;;;;;;;6.45;2.75;;;22.90;88.80;;;;;;5066775;28;20112;-63
2022/06/11 00:12:27;;;;;;;5.57;3.70;;;22.90;88.80;;;;;;5069265;28;20457;-63
2022/06/11 00:14:53;;;;;;;5.82;3.05;;;22.80;88.80;;;;;;5068459;28;20396;-64
2022/06/11 00:17:24;;;;;;;6.95;3.17;;;22.80;89.00;;;;;;5055336;28;20071;-63
2022/06/11 00:19:50;;;;;;;6.28;3.25;;;22.80;89.00;;;;;;5062394;28;20032;-63
2022/06/11 00:22:19;;;;;;;6.32;3.25;;;22.70;89.00;;;;;;5060294;28;20029;-64
2022/06/11 00:24:45;;;;;;;9.20;3.17;;;22.80;89.10;;;;;;5061117;28;20041;-63
2022/06/11 00:27:12;;;;;;;10.82;3.35;;;22.70;89.00;;;;;;5074531;28;20123;-63
2022/06/11 00:29:39;;;;;;;6.93;3.08;;;22.70;89.10;;;;;;5065481;28;20517;-63
2022/06/11 00:32:07;;;;;;;6.63;3.00;;;22.60;89.10;;;;;;5069032;28;20025;-63
2022/06/11 00:34:33;;;;;;;5.88;2.72;;;22.60;89.20;;;;;;5066745;28;20025;-63
2022/06/11 00:36:59;;;;;;;8.07;3.38;;;22.60;89.30;;;;;;5055908;28;20372;-63
2022/06/11 00:39:29;;;;;;;7.45;3.03;;;22.50;89.90;;;;;;5066720;28;20041;-63
2022/06/11 00:42:00;;;;;;;6.07;3.10;;;22.50;89.30;;;;;;5068079;28;20033;-63
2022/06/11 00:44:26;;;;;;;13.50;3.40;;;22.50;89.40;;;;;;5054514;28;20381;-63
2022/06/11 00:47:09;;;;;;;11.05;3.75;;;22.50;89.40;;;;;;5054583;28;20040;-64
2022/06/11 00:49:52;;;;;;;5.65;3.33;;;22.40;89.20;;;;;;5064329;28;20024;-63
2022/06/11 00:52:30;;;;;;;;;;;22.50;89.20;;;;;;5072089;28;20079;-63
2022/06/11 00:55:06;;;;;;;6.22;3.50;;;22.40;89.10;;;;;;5061890;28;19920;-63
2022/06/11 00:57:36;;;;;;;9.52;3.50;;;22.40;89.50;;;;;;5061965;28;20089;-63
2022/06/11 01:00:08;;;;;;;4.40;2.83;;;22.30;89.00;;;;;;5072758;28;20032;-63
2022/06/11 01:02:34;;;;;;;9.38;3.22;;;22.30;89.20;;;;;;5074574;28;20186;-63
2022/06/11 01:05:03;;;;;;;9.90;4.85;;;22.20;89.30;;;;;;5057397;28;20132;-63
2022/06/11 01:08:03;;;;;;;5.88;3.13;;;22.20;89.40;;;;;;5066129;28;20474;-63
2022/06/11 01:10:38;;;;;;;11.68;3.38;;;22.20;89.30;;;;;;5059694;28;20047;-64
2022/06/11 01:13:40;;;;;;;13.13;3.10;;;22.10;89.00;;;;;;5055138;28;20480;-64
2022/06/11 01:16:34;;;;;;;6.07;2.83;;;22.10;89.00;;;;;;5056077;28;20143;-65
2022/06/11 01:19:23;;;;;;;7.47;2.72;;;22.00;88.60;;;;;;5072563;28;20043;-64
2022/06/11 01:22:22;;;;;;;4.82;2.72;;;22.00;88.50;;;;;;5065242;28;20027;-63
2022/06/11 01:25:27;;;;;;;7.70;2.38;;;21.90;88.30;;;;;;5060773;28;20111;-64
2022/06/11 01:27:58;;;;;;;5.50;2.03;;;21.90;88.20;;;;;;5059829;28;20040;-64
2022/06/11 01:30:28;;;;;;;9.02;2.55;;;21.80;87.90;;;;;;5072837;28;20476;-64
2022/06/11 01:33:19;;;;;;;4.85;2.30;;;21.80;87.60;;;;;;5062441;28;20051;-64
2022/06/11 01:36:04;;;;;;;5.03;2.33;;;21.80;87.80;;;;;;5070535;28;20115;-64
2022/06/11 01:38:37;;;;;;;8.55;2.70;;;21.70;87.60;;;;;;5073216;28;20033;-64
2022/06/11 01:41:12;;;;;;;;;;;21.70;87.70;;;;;;5074552;28;20029;-64
2022/06/11 01:43:41;;;;;;;11.85;2.80;;;21.70;87.70;;;;;;5057199;28;19966;-64
2022/06/11 01:46:18;;;;;;;4.78;2.15;;;21.70;87.60;;;;;;5056683;28;20112;-64
2022/06/11 01:49:00;;;;;;;8.60;2.53;;;21.60;87.40;;;;;;5059707;28;20020;-64
2022/06/11 01:51:30;;;;;;;3.85;1.85;;;21.60;87.30;;;;;;5071162;28;20032;-64
2022/06/11 01:54:08;;;;;;;4.35;1.50;;;21.50;87.00;;;;;;5059724;28;20365;-64
2022/06/11 01:56:49;;;;;;;3.13;1.60;;;21.40;86.90;;;;;;5067002;28;20032;-64
2022/06/11 01:59:40;;;;;;;4.55;2.10;;;21.40;86.60;;;;;;5053788;28;20082;-64
2022/06/11 02:02:20;;;;;;;2.35;1.52;;;21.30;86.40;;;;;;5061673;28;20070;-64
2022/06/11 02:05:12;;;;;;;5.40;2.40;;;21.30;86.30;;;;;;5054122;28;20045;-64
2022/06/11 02:08:06;;;;;;;9.10;2.15;;;21.20;86.10;;;;;;5051328;28;20025;-64
2022/06/11 02:10:34;;;;;;;7.18;1.85;;;21.20;85.90;;;;;;5057335;28;20029;-64
2022/06/11 02:13:17;;;;;;;5.53;2.00;;;21.10;85.80;;;;;;5065647;28;20032;-64
2022/06/11 02:15:52;;;;;;;9.35;2.50;;;21.10;85.80;;;;;;5061324;28;20542;-64
2022/06/11 02:18:20;;;;;;;5.47;1.73;;;21.00;85.60;;;;;;5070056;28;20056;-64
2022/06/11 02:20:52;;;;;;;7.18;1.95;;;21.00;85.50;;;;;;5063350;28;20037;-65
2022/06/11 02:23:38;;;;;;;11.63;2.42;;;21.00;85.60;;;;;;5071255;28;20039;-66
2022/06/11 02:26:23;;;;;;;8.13;2.33;;;20.90;85.60;;;;;;5072363;28;20105;-64
2022/06/11 02:28:51;;;;;;;7.18;1.63;;;20.90;85.40;;;;;;5071405;28;20481;-64
2022/06/11 02:31:24;;;;;;;9.18;1.90;;;20.80;85.40;;;;;;5063128;28;20025;-64
2022/06/11 02:33:51;;;;;;;7.28;1.92;;;20.80;85.30;;;;;;5071224;28;20036;-64
2022/06/11 02:36:21;;;;;;;19.15;2.47;;;20.80;85.30;;;;;;5070629;28;20051;-64
2022/06/11 02:38:48;;;;;;;8.02;1.90;;;20.70;85.30;;;;;;5071831;28;20016;-65
2022/06/11 02:41:18;;;;;;;7.28;1.67;;;20.70;85.30;;;;;;5060211;28;20040;-64
2022/06/11 02:43:44;;;;;;;6.22;1.90;;;20.60;85.30;;;;;;5059095;28;20033;-64
2022/06/11 02:48:55;;;;;;;7.00;1.58;;;20.60;85.20;;;;;;5061819;28;20033;-64
2022/06/11 02:51:23;;;;;;;8.15;2.03;;;20.50;85.90;;;;;;5070635;28;20044;-64
2022/06/11 02:53:49;;;;;;;9.00;2.08;;;20.50;85.20;;;;;;5069912;28;20507;-64
2022/06/11 02:56:19;;;;;;;10.77;2.10;;;20.50;85.90;;;;;;5060312;28;20033;-65
2022/06/11 02:58:44;;;;;;;8.00;1.90;;;20.50;85.30;;;;;;5069051;28;20082;-64
2022/06/11 03:01:10;;;;;;;8.25;2.58;;;20.40;85.30;;;;;;5063834;28;20493;-64
2022/06/11 03:03:37;;;;;;;13.25;2.50;;;20.50;85.40;;;;;;5065502;28;20392;-65
2022/06/11 03:06:03;;;;;;;8.88;2.08;;;20.40;85.30;;;;;;5072547;28;20134;-64
2022/06/11 03:08:31;;;;;;;8.43;2.13;;;20.40;85.20;;;;;;5070904;28;20028;-64
2022/06/11 03:10:56;;;;;;;7.18;2.05;;;20.30;85.10;;;;;;5071317;28;20040;-64
2022/06/11 03:13:23;;;;;;;7.38;2.33;;;20.30;85.20;;;;;;5058801;28;20155;-64
2022/06/11 03:15:49;;;;;;;10.52;2.10;;;20.30;85.10;;;;;;5057813;28;20081;-64
2022/06/11 03:18:16;;;;;;;10.43;2.00;;;20.20;85.00;;;;;;5071206;28;20028;-64
2022/06/11 03:20:42;;;;;;;10.23;2.00;;;20.20;85.00;;;;;;5070927;28;20028;-64
2022/06/11 03:23:08;;;;;;;10.27;2.30;;;20.20;85.20;;;;;;5061724;28;20021;-64
2022/06/11 03:25:34;;;;;;;11.45;2.05;;;20.20;85.30;;;;;;5067041;28;20119;-64
2022/06/11 03:28:10;;;;;;;7.70;1.88;;;20.10;85.30;;;;;;5072169;28;20106;-64
2022/06/11 03:30:36;;;;;;;9.68;1.98;;;20.10;85.40;;;;;;5069674;28;20044;-64
2022/06/11 03:33:06;;;;;;;9.00;1.85;;;20.10;85.30;;;;;;5070579;28;20120;-64
2022/06/11 03:35:32;;;;;;;11.10;2.70;;;20.10;85.30;;;;;;5069104;28;20464;-64
2022/06/11 03:37:58;;;;;;;8.45;1.75;;;20.00;85.20;;;;;;5071621;28;20364;-64
2022/06/11 03:40:24;;;;;;;2.22;1.02;;;20.00;85.20;;;;;;5069235;28;20111;-64
2022/06/11 03:42:51;;;;;;;13.40;2.97;;;20.00;85.00;;;;;;5071389;28;20036;-64
2022/06/11 03:45:18;;;;;;;2.65;1.13;;;19.90;85.20;;;;;;5056997;28;20136;-64
2022/06/11 03:47:45;;;;;;;11.90;2.28;;;19.90;85.30;;;;;;5070206;28;20028;-64
2022/06/11 03:50:18;;;;;;;7.30;1.92;;;19.80;85.40;;;;;;5069126;28;20110;-64
2022/06/11 03:52:44;;;;;;;8.32;1.45;;;19.80;85.60;;;;;;5058036;28;20040;-65
2022/06/11 03:55:12;;;;;;;2.10;1.20;;;19.80;85.40;;;;;;5058577;28;20036;-66
2022/06/11 03:57:39;;;;;;;14.65;1.48;;;19.80;85.40;;;;;;5060498;28;20103;-65
2022/06/11 04:00:08;;;;;;;8.52;1.77;;;19.70;85.40;;;;;;5065056;28;20028;-64
2022/06/11 04:02:34;;;;;;;10.98;2.15;;;19.60;85.90;;;;;;5066972;28;20472;-64
2022/06/11 04:04:59;;;;;;;13.07;1.77;;;19.60;86.00;;;;;;5063993;28;20065;-64
2022/06/11 04:07:25;;;;;;;6.43;2.25;;;19.60;86.30;;;;;;5063980;28;20028;-64
2022/06/11 04:09:51;;;;;;;7.68;1.90;;;19.60;86.50;;;;;;5065122;28;20418;-64
2022/06/11 04:12:18;;;;;;;8.50;2.38;;;19.50;86.60;;;;;;5067072;28;20040;-64
2022/06/11 04:14:46;;;;;;;7.10;1.92;;;19.60;86.70;;;;;;5067848;28;20033;-64
2022/06/11 04:17:26;;;;;;;8.85;2.03;;;19.50;86.80;;;;;;5065890;28;20078;-65
2022/06/11 04:19:52;;;;;;;6.35;2.10;;;19.60;87.00;;;;;;5066475;28;20111;-64
2022/06/11 04:22:19;;;;;;;8.60;2.53;;;19.60;87.00;;;;;;5062197;28;20131;-64
2022/06/11 04:24:45;;;;;;;8.13;2.53;;;19.60;87.00;;;;;;5066957;28;20042;-64
2022/06/11 04:27:13;;;;;;;11.45;1.85;;;19.60;87.00;;;;;;5066128;28;20029;-65
2022/06/11 04:29:49;;;;;;;4.63;1.63;;;19.60;86.90;;;;;;5069984;28;20052;-64
2022/06/11 04:32:16;;;;;;;1.85;1.15;;;19.50;86.50;;;;;;5069958;28;20021;-65
2022/06/11 04:34:44;;;;;;;4.25;0.95;;;19.50;86.30;;;;;;5069858;28;20107;-65
2022/06/11 04:37:14;;;;;;;7.93;1.40;;;19.50;86.40;;;;;;5066867;28;20082;-65
2022/06/11 04:39:44;;;;;;;5.35;1.40;;;19.40;86.50;;;;;;5062963;28;20076;-65
2022/06/11 04:42:11;;;;;;;2.83;1.55;;;19.40;86.50;;;;;;5069080;28;20021;-64
2022/06/11 04:44:42;;;;;;;6.00;1.52;;;19.40;86.70;;;;;;5071199;28;20040;-65
2022/06/11 04:47:10;;;;;;;9.25;2.20;;;19.30;87.00;;;;;;5073034;28;20065;-65
2022/06/11 04:49:36;;;;;;;7.20;2.10;;;19.30;87.10;;;;;;5072545;28;20049;-66
2022/06/11 04:52:03;;;;;;;3.00;1.00;;;19.30;87.40;;;;;;5061909;28;20160;-65
2022/06/11 04:54:29;;;;;;;4.75;1.63;;;19.20;87.30;;;;;;5068795;28;20104;-64
2022/06/11 04:56:55;;;;;;;5.13;1.75;;;19.20;88.50;;;;;;5068890;28;20590;-66
2022/06/11 04:59:21;;;;;;;10.68;1.95;;;19.20;88.00;;;;;;5063716;28;20384;-66
2022/06/11 05:01:46;;;;;;;14.50;2.95;;;19.20;88.30;;;;;;5067299;28;20037;-66
2022/06/11 05:04:13;;;;;;;4.05;1.38;;;19.20;88.60;;;;;;5058421;28;20032;-66
2022/06/11 05:06:42;;;;;;;9.00;1.75;;;19.20;88.70;;;;;;5066964;28;20033;-66
2022/06/11 05:09:13;;;;;;;7.07;1.10;;;19.20;88.90;;;;;;5068763;28;20442;-67
2022/06/11 05:11:39;;;;;;;17.42;1.38;;;19.20;88.80;;;;;;5067998;28;20024;-67
2022/06/11 05:14:05;;;;;;;12.52;2.17;;;19.10;88.70;;;;;;5064962;28;20090;-67
2022/06/11 05:16:32;;;;;;;4.05;0.82;;;19.10;89.80;;;;;;5067430;28;20048;-67
2022/06/11 05:18:58;;;;;;;11.88;2.30;;;19.20;89.00;;;;;;5071530;28;20135;-66
2022/06/11 05:21:24;;;;;;;4.68;1.30;;;19.20;89.40;;;;;;5073469;28;20055;-66
2022/06/11 05:23:49;;;;;;;7.35;1.73;;;19.10;89.30;;;;;;5068485;28;20111;-65
2022/06/11 05:26:22;;;;;;;6.63;1.88;;;19.10;89.60;;;;;;5064693;28;20474;-67
2022/06/11 05:28:49;;;;;;;12.55;1.70;;;19.10;89.90;;;;;;5059690;28;20388;-66
2022/06/11 05:31:16;;;;;;;3.97;2.22;;;19.00;90.00;;;;;;5072550;28;20032;-66
2022/06/11 05:33:42;;;;;;;4.88;1.48;;;19.10;90.10;;;;;;5066221;28;20028;-66
2022/06/11 05:36:09;;;;;;;7.18;1.63;;;19.10;90.10;;;;;;5058756;28;20032;-65
2022/06/11 05:38:35;;;;;;;3.20;1.55;;;19.00;90.10;;;;;;5062837;28;20519;-64
2022/06/11 05:41:01;;;;;;;2.58;1.35;;;19.00;90.20;;;;;;5065824;28;20029;-65
2022/06/11 05:43:27;;;;;;;2.60;0.93;;;19.00;90.40;;;;;;5067999;28;20441;-65
2022/06/11 05:46:03;;;;;;;4.28;1.90;;;19.00;90.50;;;;;;5062572;28;20060;-65
2022/06/11 05:48:34;;;;;;;7.97;1.67;;;19.00;90.60;;;;;;5069935;28;20104;-69
2022/06/11 05:51:01;;;;;;;5.57;1.77;;;19.00;90.80;;;;;;5069460;28;20499;-65
2022/06/11 05:53:31;;;;;;;10.85;1.92;;;18.90;90.80;;;;;;5067038;28;20064;-65
2022/06/11 05:55:59;;;;;;;10.63;1.73;;;18.90;91.00;;;;;;5066759;28;20070;-65
2022/06/11 05:58:42;;;;;;;10.77;3.33;;;18.90;91.10;;;;;;5071104;28;20024;-64
2022/06/11 06:01:08;;;;;;;5.72;1.15;;;18.90;91.20;;;;;;5071133;28;20455;-64
2022/06/11 06:03:34;;;;;;;5.97;1.80;;;18.90;91.60;;;;;;5071644;28;20032;-65
2022/06/11 06:06:00;;;;;;;13.38;1.95;;;18.80;91.50;;;;;;5071509;28;20040;-65
2022/06/11 06:08:25;;;;;;;6.63;2.08;;;18.80;91.70;;;;;;5060433;28;20102;-65
2022/06/11 06:10:51;;;;;;;3.20;1.30;;;18.80;91.90;;;;;;5065774;28;20040;-67
2022/06/11 06:16:01;;;;;;;13.70;3.22;;;18.70;92.00;;;;;;5068631;28;20545;-66
2022/06/11 06:18:27;;;;;;;5.30;1.08;;;18.80;92.20;;;;;;5073428;28;20064;-67
2022/06/11 06:20:53;;;;;;;16.70;2.70;;;18.70;92.30;;;;;;5066140;28;20052;-67
2022/06/11 06:23:18;;;;;;;12.25;2.35;;;18.70;92.50;;;;;;5065256;28;20032;-67
2022/06/11 06:25:44;;;;;;;8.60;2.85;;;18.70;92.50;;;;;;5057000;28;20037;-67
2022/06/11 06:28:10;;;;;;;18.02;3.42;;;18.70;92.60;;;;;;5070864;28;20523;-65
2022/06/11 06:30:36;;;;;;;18.33;3.10;;;18.70;92.70;;;;;;5070755;28;20056;-67
2022/06/11 06:33:01;;;;;;;4.32;2.15;;;18.70;92.70;;;;;;5072651;28;20032;-66
2022/06/11 06:35:27;;;;;;;32.05;3.08;;;18.70;92.80;;;;;;5070031;28;20029;-65
2022/06/11 06:37:53;;;;;;;3.40;1.67;;;18.70;92.90;;;;;;5068488;28;20024;-65
2022/06/11 06:40:19;;;;;;;10.23;2.83;;;18.70;93.00;;;;;;5070053;28;20048;-65
2022/06/11 06:42:45;;;;;;;7.60;2.15;;;18.70;93.00;;;;;;5070438;28;20052;-65
2022/06/11 06:45:11;;;;;;;18.55;3.45;;;18.70;93.10;;;;;;5066071;28;20072;-65
2022/06/11 06:47:37;;;;;;;8.80;2.67;;;18.70;93.20;;;;;;5071404;28;20032;-66
2022/06/11 06:50:04;;;;;;;7.75;2.60;;;18.70;93.30;;;;;;5064645;28;20392;-65
2022/06/11 06:52:30;;;;;;;16.42;2.80;;;18.70;93.40;;;;;;5065444;28;20380;-66
2022/06/11 06:54:56;;;;;;;9.48;3.20;;;18.70;93.40;;;;;;5071533;28;20039;-64
2022/06/11 06:57:22;;;;;;;8.90;2.63;;;18.80;93.50;;;;;;5066431;28;20486;-64
2022/06/11 06:59:47;;;;;;;6.32;1.83;;;18.70;93.50;;;;;;5062926;28;20021;-64
2022/06/11 07:02:15;;;;;;;19.35;3.47;;;18.70;93.50;;;;;;5069574;28;20040;-65
2022/06/11 07:04:40;;;;;;;7.88;2.25;;;18.80;93.60;;;;;;5064297;28;20029;-65
2022/06/11 07:07:06;;;;;;;5.68;2.63;;;18.80;93.70;;;;;;5061542;28;20055;-64
2022/06/11 07:09:33;;;;;;;9.40;2.53;;;18.80;93.70;;;;;;5060891;28;20055;-65
2022/06/11 07:11:58;;;;;;;5.93;2.72;;;18.80;93.80;;;;;;5068035;28;20079;-65
2022/06/11 07:14:24;;;;;;;9.85;2.35;;;18.80;93.80;;;;;;5062915;28;20400;-65
2022/06/11 07:16:53;;;;;;;12.05;3.33;;;18.90;93.80;;;;;;5057071;28;20032;-66
2022/06/11 07:19:28;;;;;;;12.98;2.67;;;18.90;93.80;;;;;;5056280;28;20427;-65
2022/06/11 07:22:00;;;;;;;9.02;2.40;;;18.90;93.90;;;;;;5064809;28;20468;-65
2022/06/11 07:24:29;;;;;;;11.52;2.67;;;18.90;93.90;;;;;;5062765;28;20079;-65
2022/06/11 07:27:01;;;;;;;10.65;3.28;;;18.90;93.90;;;;;;5066971;28;20158;-65
2022/06/11 07:29:50;;;;;;;12.38;3.08;;;18.90;93.90;;;;;;5065765;28;20040;-65
2022/06/11 07:32:20;;;;;;;8.95;1.85;;;19.00;94.10;;;;;;5063475;28;20040;-65
2022/06/11 07:34:46;;;;;;;2.33;1.50;;;19.00;94.10;;;;;;5063443;28;20108;-65
2022/06/11 07:37:13;;;;;;;15.13;3.00;;;19.00;94.10;;;;;;5061460;28;20100;-65
2022/06/11 07:39:38;;;;;;;15.32;2.90;;;19.00;94.10;;;;;;5064793;28;20376;-65
2022/06/11 07:42:07;;;;;;;7.22;1.70;;;19.10;94.00;;;;;;5063631;28;20024;-65
2022/06/11 07:44:35;;;;;;;17.27;3.72;;;19.10;94.00;;;;;;5068095;28;20400;-65
2022/06/11 07:47:01;;;;;;;7.82;3.10;;;19.10;93.90;;;;;;5061152;28;20053;-65
2022/06/11 07:49:26;;;;;;;16.70;3.15;;;19.20;94.00;;;;;;5054328;28;20474;-65
2022/06/11 07:51:52;;;;;;;6.95;2.05;;;19.20;94.00;;;;;;5061241;28;20519;-64
2022/06/11 07:54:18;;;;;;;7.25;3.65;;;19.20;93.80;;;;;;5066354;28;20056;-64
2022/06/11 07:56:44;;;;;;;6.07;1.52;;;19.30;93.90;;;;;;5064444;28;20040;-64
2022/06/11 07:59:09;;;;;;;6.82;2.25;;;19.30;93.90;;;;;;5053496;28;20473;-65
2022/06/11 08:01:35;;;;;;;7.00;1.85;;;19.30;93.90;;;;;;5060030;28;20543;-64
2022/06/11 08:04:01;;;;;;;13.57;1.98;;;19.30;93.80;;;;;;5061847;28;20028;-64
2022/06/11 08:06:27;;;;;;;5.07;1.30;;;19.40;93.80;;;;;;5063207;28;20036;-68
2022/06/11 08:08:52;;;;;;;2.25;1.33;;;19.40;93.70;;;;;;5055739;28;20039;-64
2022/06/11 08:11:18;;;;;;;6.15;1.95;;;19.40;93.70;;;;;;5063761;28;20040;-64
2022/06/11 08:13:44;;;;;;;10.27;3.08;;;19.50;93.70;;;;;;5063134;28;20021;-65
2022/06/11 08:16:10;;;;;;;5.05;1.70;;;19.50;93.70;;;;;;5064075;28;20037;-66
2022/06/11 08:18:37;;;;;;;15.20;3.10;;;19.50;93.50;;;;;;5064165;28;20024;-65
2022/06/11 08:21:04;;;;;;;3.13;1.35;;;19.60;93.50;;;;;;5064868;28;20033;-66
2022/06/11 08:23:30;;;;;;;8.80;2.28;;;19.60;93.30;;;;;;5073195;28;20078;-65
2022/06/11 08:25:56;;;;;;;8.73;2.00;;;19.70;93.40;;;;;;5063986;28;20069;-66
2022/06/11 08:28:23;;;;;;;11.57;2.53;;;19.70;93.30;;;;;;5058668;28;20028;-65
2022/06/11 08:30:49;;;;;;;12.45;1.67;;;19.70;93.30;;;;;;5073321;28;20032;-65
2022/06/11 08:33:16;;;;;;;7.20;1.88;;;19.70;93.20;;;;;;5069371;28;20037;-64
2022/06/11 08:35:43;;;;;;;17.85;2.33;;;19.70;93.10;;;;;;5057248;28;20376;-64
2022/06/11 08:38:09;;;;;;;16.20;3.53;;;19.80;93.10;;;;;;5065537;28;20028;-64
2022/06/11 08:40:43;;;;;;;16.55;1.80;;;19.80;93.00;;;;;;5065955;28;20029;-64
2022/06/11 08:43:28;;;;;;;23.42;3.28;;;19.80;93.10;;;;;;5064474;28;20040;-64
2022/06/11 08:46:21;;;;;;;16.90;2.28;;;19.90;93.00;;;;;;5066606;28;20072;-64
2022/06/11 08:49:02;;;;;;;3.07;1.77;;;19.90;92.90;;;;;;5059547;28;20025;-64
2022/06/11 08:51:37;;;;;;;5.88;1.58;;;20.00;92.80;;;;;;5063424;28;20116;-64
2022/06/11 08:54:07;;;;;;;10.02;2.58;;;20.00;92.60;;;;;;5066636;28;20020;-65
2022/06/11 08:56:57;;;;;;;18.75;2.60;;;20.10;92.70;;;;;;5067397;28;20033;-64
2022/06/11 08:59:47;;;;;;;7.63;1.65;;;20.10;92.50;;;;;;5067077;28;20029;-64
2022/06/11 09:02:28;;;;;;;14.23;2.40;;;20.10;92.20;;;;;;5066943;28;20125;-66
2022/06/11 09:05:11;;;;;;;11.82;2.08;;;20.10;92.10;;;;;;5063353;28;20037;-66
2022/06/11 09:08:01;;;;;;;6.43;1.73;;;20.20;92.20;;;;;;5067244;28;20031;-66
2022/06/11 09:10:48;;;;;;;13.02;2.08;;;20.20;92.00;;;;;;5061328;28;20083;-66
2022/06/11 09:13:38;;;;;;;8.32;2.60;;;20.20;91.90;;;;;;5063095;28;20503;-67
2022/06/11 09:16:15;;;;;;;7.38;2.08;;;20.20;91.60;;;;;;5065789;28;20036;-65
2022/06/11 09:19:10;;;;;;;8.07;1.63;;;20.20;91.60;;;;;;5069323;28;20077;-65
2022/06/11 09:21:45;;;;;;;11.23;1.70;;;20.20;91.70;;;;;;5065402;28;20563;-64
2022/06/11 09:24:26;;;;;;;8.40;2.03;;;20.30;91.90;;;;;;5066739;28;20040;-64
2022/06/11 09:27:04;;;;;;;2.38;1.17;;;20.30;91.90;;;;;;5067403;28;20029;-64
2022/06/11 09:29:51;;;;;;;4.05;1.55;;;20.30;91.90;;;;;;5059733;28;20024;-65
2022/06/11 09:32:22;;;;;;;7.97;1.30;;;20.40;91.60;;;;;;5066790;28;21433;-66
2022/06/11 09:34:56;;;;;;;17.02;2.15;;;20.30;91.40;;;;;;5063562;28;20036;-65
2022/06/11 09:37:48;;;;;;;7.68;1.45;;;20.40;91.30;;;;;;5065986;28;20653;-66
2022/06/11 09:40:39;;;;;;;10.82;1.42;;;20.40;91.40;;;;;;5064758;28;20029;-66
2022/06/11 09:43:14;;;;;;;7.75;1.80;;;20.40;91.00;;;;;;5067215;28;20483;-65
2022/06/11 09:45:52;;;;;;;5.60;1.63;;;20.50;90.90;;;;;;5064439;28;20044;-67
2022/06/11 09:48:37;;;;;;;7.45;1.33;;;20.50;90.70;;;;;;5062883;28;20358;-64
2022/06/11 09:51:08;;;;;;;9.38;1.05;;;20.50;90.60;;;;;;5064549;28;20020;-65
2022/06/11 09:53:56;;;;;;;13.38;2.58;;;20.60;90.20;;;;;;5059323;28;20058;-65
2022/06/11 09:56:40;;;;;;;16.40;2.15;;;20.60;90.00;;;;;;5062553;28;20033;-67
2022/06/11 09:59:19;;;;;;;5.13;1.23;;;20.60;90.10;;;;;;5065644;28;20042;-64
2022/06/11 10:01:52;;;;;;;17.90;1.50;;;20.70;90.20;;;;;;5071301;28;20044;-65
2022/06/11 10:04:24;;;;;;;16.48;2.00;;;20.70;89.50;;;;;;5063529;28;20450;-66
2022/06/11 10:06:56;;;;;;;4.38;1.63;;;20.70;89.00;;;;;;5061304;28;20028;-70
2022/06/11 10:09:32;;;;;;;10.10;1.70;;;20.70;88.70;;;;;;5065048;28;20029;-67
2022/06/11 10:12:23;;;;;;;10.18;1.58;;;20.60;88.60;;;;;;5064959;28;20118;-66
2022/06/11 10:14:54;;;;;;;2.33;0.90;;;20.60;87.50;;;;;;5056257;28;20051;-65
2022/06/11 10:18:00;;;;;;;5.95;1.58;;;20.60;86.80;;;;;;5063303;28;20021;-65
2022/06/11 10:20:38;;;;;;;6.13;1.23;;;20.60;86.20;;;;;;5063307;28;20529;-67
2022/06/11 10:23:20;;;;;;;11.40;2.30;;;20.60;87.10;;;;;;5070407;28;20083;-65
2022/06/11 10:26:11;;;;;;;12.02;1.25;;;20.60;86.80;;;;;;5069346;28;20094;-65
2022/06/11 10:28:37;;;;;;;12.82;2.45;;;20.60;86.80;;;;;;5069213;28;20480;-65
2022/06/11 10:31:09;;;;;;;4.25;1.63;;;20.70;86.90;;;;;;5072379;28;20028;-65
2022/06/11 10:33:49;;;;;;;4.55;1.50;;;20.70;87.30;;;;;;5065468;28;20100;-65
2022/06/11 10:36:23;;;;;;;7.70;1.77;;;20.80;87.10;;;;;;5068265;28;20041;-65
2022/06/11 10:39:03;;;;;;;4.95;1.65;;;20.80;86.40;;;;;;5062630;28;20052;-65
2022/06/11 10:41:49;;;;;;;15.27;1.95;;;20.80;86.60;;;;;;5055889;28;20029;-66
2022/06/11 10:44:29;;;;;;;11.88;1.45;;;20.80;87.00;;;;;;5057800;28;20040;-65
2022/06/11 10:46:56;;;;;;;1.10;0.55;;;20.90;87.00;;;;;;5066353;28;20028;-65
2022/06/11 10:49:22;;;;;;;3.63;0.85;;;20.90;86.90;;;;;;5060852;28;20035;-65
2022/06/11 10:52:16;;;;;;;4.15;0.82;;;21.00;85.80;;;;;;5066348;28;20028;-66
2022/06/11 10:54:45;;;;;;;1.05;0.55;;;21.00;85.40;;;;;;5063095;28;20033;-65
2022/06/11 10:57:21;;;;;;;5.95;1.33;;;21.00;84.80;;;;;;5062736;28;20035;-65
2022/06/11 11:00:10;;;;;;;9.35;2.10;;;21.10;85.00;;;;;;5065513;28;20036;-65
2022/06/11 11:02:44;;;;;;;6.60;1.80;;;21.10;84.70;;;;;;5063137;28;20059;-65
2022/06/11 11:05:11;;;;;;;;;;;21.10;84.40;;;;;;5062197;28;20071;-65
2022/06/11 11:07:41;;;;;;;2.55;1.00;;;21.10;84.20;;;;;;5057452;28;19983;-65
2022/06/11 11:10:23;;;;;;;6.10;0.70;;;21.10;84.10;;;;;;5061811;28;20024;-66
2022/06/11 11:12:55;;;;;;;5.38;1.15;;;21.10;84.50;;;;;;5063984;28;20058;-65
2022/06/11 11:15:26;;;;;;;1.70;0.77;;;21.10;84.80;;;;;;5062435;28;20028;-65
2022/06/11 11:17:58;;;;;;;9.75;1.83;;;21.20;85.10;;;;;;5066123;28;20040;-65
2022/06/11 11:20:41;;;;;;;6.60;1.35;;;21.30;85.90;;;;;;5065353;28;20028;-65
2022/06/11 11:23:10;;;;;;;8.03;1.63;;;21.30;86.00;;;;;;5063470;28;20041;-65
2022/06/11 11:26:10;;;;;;;8.75;2.05;;;21.40;86.20;;;;;;5063673;28;20440;-65
2022/06/11 11:28:57;;;;;;;3.83;1.23;;;21.50;85.00;;;;;;5060076;28;20036;-65
2022/06/11 11:31:30;;;;;;;3.13;1.55;;;21.50;84.00;;;;;;5061648;28;20097;-65
2022/06/11 11:33:59;;;;;;;4.75;1.35;;;21.50;83.80;;;;;;5066219;28;20418;-66
2022/06/11 11:36:27;;;;;;;1.75;0.82;;;21.50;84.40;;;;;;5063017;28;20028;-65
2022/06/11 11:39:15;;;;;;;1.10;0.60;;;21.50;83.80;;;;;;5070964;28;20036;-65
2022/06/11 11:42:08;;;;;;;5.78;1.40;;;21.60;83.50;;;;;;5064634;28;20480;-65
2022/06/11 11:44:49;;;;;;;4.18;1.02;;;21.60;83.00;;;;;;5062335;28;20532;-65
2022/06/11 11:47:25;;;;;;;8.52;1.55;;;21.60;82.50;;;;;;5066550;28;20426;-65
2022/06/11 11:49:57;;;;;;;1.40;1.02;;;21.60;83.00;;;;;;5071090;28;20119;-66
2022/06/11 11:52:24;;;;;;;5.75;1.52;;;21.60;82.00;;;;;;5057481;28;20457;-65
2022/06/11 11:54:56;;;;;;;4.30;1.17;;;21.60;82.40;;;;;;5060903;28;20479;-65
2022/06/11 11:57:23;;;;;;;10.05;1.95;;;21.70;82.50;;;;;;5068673;28;20036;-65
2022/06/11 12:00:24;;;;;;;2.55;1.15;;;21.70;82.10;;;;;;5065827;28;20017;-65
2022/06/11 12:02:55;;;;;;;10.63;1.90;;;21.70;81.80;;;;;;5058018;28;20069;-65
2022/06/11 12:05:33;;;;;;;4.15;1.83;;;21.70;81.80;;;;;;5069227;28;20124;-64
2022/06/11 12:08:00;;;;;;;8.18;1.42;;;21.70;82.20;;;;;;5062273;28;20116;-64
2022/06/11 12:10:35;;;;;;;3.45;1.02;;;21.70;82.60;;;;;;5061250;28;20051;-65
2022/06/11 12:13:03;;;;;;;7.22;1.30;;;21.80;82.90;;;;;;5064608;28;20029;-65
2022/06/11 12:15:32;;;;;;;3.35;1.08;;;21.80;82.40;;;;;;5060634;28;20576;-65
2022/06/11 12:18:11;;;;;;;3.25;0.85;;;21.90;81.90;;;;;;5060414;28;20112;-65
2022/06/11 12:20:46;;;;;;;5.90;1.60;;;21.90;81.70;;;;;;5070702;28;20108;-65
2022/06/11 12:23:44;;;;;;;6.00;1.80;;;21.90;81.60;;;;;;5062573;28;20070;-64
2022/06/11 12:26:17;;;;;;;10.50;1.65;;;22.00;82.00;;;;;;5072212;28;20094;-66
2022/06/11 12:28:56;;;;;;;6.00;1.90;;;22.00;82.00;;;;;;5074237;28;20078;-65
2022/06/11 12:31:21;;;;;;;6.85;1.58;;;22.10;80.90;;;;;;5063220;28;20041;-65
2022/06/11 12:33:51;;;;;;;1.95;0.73;;;22.10;80.70;;;;;;5072603;28;20078;-65
2022/06/11 12:36:30;;;;;;;5.15;1.48;;;22.10;80.70;;;;;;5069995;28;20033;-66
2022/06/11 12:39:06;;;;;;;6.13;2.13;;;22.20;79.90;;;;;;5073285;28;20396;-65
2022/06/11 12:41:47;;;;;;;3.03;0.47;;;22.20;80.50;;;;;;5068453;28;20031;-66
2022/06/11 12:44:50;;;;;;;7.10;1.25;;;22.20;80.10;;;;;;5071058;28;20036;-66
2022/06/11 12:47:45;;;;;;;4.38;1.05;;;22.20;80.10;;;;;;5067347;28;20033;-66
2022/06/11 12:50:32;;;;;;;1.83;0.65;;;22.20;79.80;;;;;;5061086;28;20041;-66
2022/06/11 12:53:24;;;;;;;3.70;1.08;;;22.20;78.50;;;;;;5070053;28;20048;-65
2022/06/11 12:56:24;;;;;;;2.78;1.25;;;22.20;78.00;;;;;;5067320;28;20040;-65
2022/06/11 12:58:55;;;;;;;1.75;0.60;;;22.30;78.30;;;;;;5065038;28;20543;-66
2022/06/11 13:01:30;;;;;;;0.85;0.60;;;22.30;77.50;;;;;;5069591;28;20106;-65
2022/06/11 13:04:19;;;;;;;2.70;0.95;;;22.20;78.10;;;;;;5069477;28;20029;-65
2022/06/11 13:07:24;;;;;;;0.63;0.47;;;22.30;77.70;;;;;;5068834;28;20030;-64
2022/06/11 13:10:23;;;;;;;3.83;1.05;;;22.40;77.20;;;;;;5067643;28;20051;-65
2022/06/11 13:13:37;;;;;;;5.60;1.25;;;22.40;77.70;;;;;;5069713;28;20775;-65
2022/06/11 13:16:14;;;;;;;10.68;1.85;;;22.50;77.40;;;;;;5062366;28;20439;-65
2022/06/11 13:18:55;;;;;;;6.18;1.55;;;22.50;76.80;;;;;;5070397;28;20027;-65
2022/06/11 13:21:23;;;;;;;3.03;1.02;;;22.60;76.80;;;;;;5062222;28;20101;-63